Time;durP1;ratioP1;P1;durP2;ratioP2;P2;SDS_P1;SDS_P2;PMS_P1;PMS_P2;Temp;Humidity;BMP_temperature;BMP_pressure;BME280_temperature;BME280_humidity;BME280_pressure;Samples;Min_cycle;Max_cycle;Signal;HPM_P1;HPM_P2
2021/09/28 00:02:22;;;;;;;;;9.50;9.25;;;;;16.51;100.00;102111.59;5100399;27;45341;-63
2021/09/28 00:04:48;;;;;;;;;9.50;7.75;;;;;16.51;100.00;102111.59;5100027;27;46309;-63
2021/09/28 00:07:15;;;;;;;;;14.25;10.00;;;;;16.43;100.00;102102.97;5099374;27;45397;-62
2021/09/28 00:09:40;;;;;;;;;9.00;9.00;;;;;16.41;100.00;102103.00;5100449;27;45305;-62
2021/09/28 00:12:06;;;;;;;;;8.50;8.00;;;;;16.41;100.00;102112.66;5100246;27;45498;-65
2021/09/28 00:14:32;;;;;;;;;8.25;8.00;;;;;16.42;100.00;102130.22;5099831;27;46309;-62
2021/09/28 00:16:57;;;;;;;;;8.00;8.00;;;;;16.37;100.00;102119.78;5100082;27;45287;-62
2021/09/28 00:19:22;;;;;;;;;10.00;9.00;;;;;16.34;100.00;102113.69;5099735;27;45256;-63
2021/09/28 00:21:48;;;;;;;;;8.50;6.75;;;;;16.33;100.00;102122.47;5100452;27;45305;-62
2021/09/28 00:24:14;;;;;;;;;12.00;8.00;;;;;16.15;100.00;102098.16;5100136;27;46448;-62
2021/09/28 00:26:40;;;;;;;;;8.00;7.00;;;;;16.30;100.00;102127.81;5100043;27;45779;-62
2021/09/28 00:32:27;;;;;;;;;7.25;7.25;;;;;16.28;100.00;102137.47;5100007;27;45379;-63
2021/09/28 00:34:52;;;;;;;;;7.50;6.25;;;;;16.26;100.00;102132.22;5099597;27;45487;-62
2021/09/28 00:37:18;;;;;;;;;7.00;7.00;;;;;16.29;100.00;102133.94;5099424;27;45267;-63
2021/09/28 00:39:44;;;;;;;;;8.50;7.50;;;;;16.28;100.00;102138.34;5100144;27;45250;-62
2021/09/28 00:42:09;;;;;;;;;8.25;8.00;;;;;16.21;100.00;102124.41;5099897;27;45368;-62
2021/09/28 00:47:56;;;;;;;;;5.50;5.50;;;;;16.21;100.00;102123.53;5099351;27;45285;-61
2021/09/28 00:50:22;;;;;;;;;7.00;7.00;;;;;16.23;100.00;102127.00;5099826;27;45592;-62
2021/09/28 00:52:48;;;;;;;;;8.00;7.50;;;;;16.18;100.00;102127.09;5099664;27;45405;-62
2021/09/28 00:55:15;;;;;;;;;8.50;7.00;;;;;16.17;100.00;102125.34;5099243;27;46290;-63
2021/09/28 00:57:41;;;;;;;;;11.75;8.00;;;;;16.16;100.00;102126.25;5099497;27;45727;-62
2021/09/28 01:00:09;;;;;;;;;9.25;7.75;;;;;16.11;100.00;102122.81;5099290;27;45433;-63
2021/09/28 01:02:36;;;;;;;;;7.75;7.00;;;;;16.12;100.00;102124.56;5099539;27;45360;-62
2021/09/28 01:05:03;;;;;;;;;8.25;8.00;;;;;16.14;100.00;102133.31;5099307;27;46377;-62
2021/09/28 01:07:30;;;;;;;;;10.00;7.75;;;;;16.11;100.00;102121.94;5099113;27;45227;-62
2021/09/28 01:09:56;;;;;;;;;8.00;8.00;;;;;16.07;100.00;102118.50;5099094;27;45371;-62
2021/09/28 01:12:22;;;;;;;;;8.50;8.25;;;;;16.03;100.00;102113.25;5099306;27;45471;-63
2021/09/28 01:18:09;;;;;;;;;10.00;8.50;;;;;16.04;100.00;102121.13;5098694;27;45730;-62
2021/09/28 01:20:35;;;;;;;;;7.00;7.00;;;;;16.02;100.00;102119.44;5098184;27;45345;-63
2021/09/28 01:23:00;;;;;;;;;9.75;7.00;;;;;16.05;100.00;102127.28;5099378;27;45429;-62
2021/09/28 01:25:26;;;;;;;;;8.75;7.50;;;;;16.02;100.00;102124.69;5098560;27;46307;-64
2021/09/28 01:27:51;;;;;;;;;7.00;7.00;;;;;16.07;100.00;102130.75;5098709;27;45306;-61
2021/09/28 01:30:16;;;;;;;;;8.50;7.75;;;;;16.03;100.00;102129.06;5098962;27;45341;-62
2021/09/28 01:32:42;;;;;;;;;10.00;8.75;;;;;15.91;100.00;102111.69;5098954;27;45423;-62
2021/09/28 01:35:07;;;;;;;;;7.25;5.75;;;;;15.99;100.00;102128.25;5098448;27;46383;-63
2021/09/28 01:37:33;;;;;;;;;8.50;6.50;;;;;15.97;100.00;102121.25;5098900;27;45353;-63
2021/09/28 01:39:58;;;;;;;;;9.25;7.00;;;;;15.98;100.00;102123.88;5098843;27;45307;-61
2021/09/28 01:42:23;;;;;;;;;8.25;7.50;;;;;15.93;100.00;102110.78;5098829;27;45422;-62
2021/09/28 01:48:11;;;;;;;;;12.00;9.75;;;;;15.96;100.00;102112.50;5098505;27;45388;-62
2021/09/28 01:50:36;;;;;;;;;12.50;11.50;;;;;15.88;100.00;102098.56;5098560;27;45407;-61
2021/09/28 01:53:03;;;;;;;;;12.00;9.25;;;;;15.91;100.00;102104.66;5098587;27;45322;-62
2021/09/28 01:55:29;;;;;;;;;11.75;11.00;;;;;15.77;100.00;102080.28;5098269;27;47618;-62
2021/09/28 01:57:58;;;;;;;;;16.50;14.50;;;;;15.90;100.00;102105.56;5098596;27;45216;-64
2021/09/28 02:00:24;;;;;;;;;11.50;11.00;;;;;15.89;100.00;102106.44;5098396;27;45283;-62
2021/09/28 02:02:49;;;;;;;;;23.75;21.50;;;;;15.84;100.00;102103.00;5098812;27;45430;-62
2021/09/28 02:05:15;;;;;;;;;16.75;14.25;;;;;15.85;100.00;102098.63;5097936;27;46998;-62
2021/09/28 02:07:41;;;;;;;;;49.75;39.75;;;;;15.79;100.00;102085.50;5098080;27;45407;-62
2021/09/28 02:10:07;;;;;;;;;48.00;36.25;;;;;15.79;100.00;102090.78;5098208;27;45407;-62
2021/09/28 02:12:33;;;;;;;;;50.00;39.00;;;;;15.75;100.00;102084.69;5098315;27;45432;-62
2021/09/28 02:18:20;;;;;;;;;52.00;42.50;;;;;15.75;100.00;102086.47;5097854;27;45381;-63
2021/09/28 02:20:45;;;;;;;;;42.25;36.75;;;;;15.71;100.00;102080.38;5098223;27;45307;-62
2021/09/28 02:23:11;;;;;;;;;50.25;36.75;;;;;15.65;100.00;102066.44;5098078;27;45354;-62
2021/09/28 02:25:36;;;;;;;;;41.75;35.50;;;;;15.65;100.00;102076.97;5097926;27;46347;-62
2021/09/28 02:28:02;;;;;;;;;40.25;35.00;;;;;15.67;100.00;102083.94;5097744;27;45332;-63
2021/09/28 02:33:48;;;;;;;;;43.00;37.00;;;;;15.57;100.00;102072.63;5097780;27;45247;-63
2021/09/28 02:36:14;;;;;;;;;37.00;32.50;;;;;15.56;100.00;102073.50;5097349;27;46385;-63
2021/09/28 02:38:40;;;;;;;;;40.25;34.25;;;;;15.56;100.00;102080.53;5097628;27;45343;-63
2021/09/28 02:41:05;;;;;;;;;31.00;28.75;;;;;15.53;100.00;102075.31;5097829;27;45351;-63
2021/09/28 02:43:31;;;;;;;;;37.75;31.75;;;;;15.50;100.00;102070.97;5098105;27;45349;-62
2021/09/28 02:45:57;;;;;;;;;33.25;28.75;;;;;15.49;100.00;102069.22;5097427;27;46542;-63
2021/09/28 02:48:22;;;;;;;;;31.00;29.25;;;;;15.46;100.00;102066.63;5097557;27;45377;-63
2021/09/28 02:50:48;;;;;;;;;33.25;30.50;;;;;15.45;100.00;102064.91;5097532;27;45505;-65
2021/09/28 02:53:13;;;;;;;;;29.50;27.00;;;;;15.44;100.00;102067.56;5097994;27;45296;-64
2021/09/28 02:55:39;;;;;;;;;33.25;28.75;;;;;15.44;100.00;102068.41;5097434;27;46645;-63
2021/09/28 02:58:05;;;;;;;;;26.25;22.50;;;;;15.38;100.00;102057.94;5097461;27;45423;-63
2021/09/28 03:03:52;;;;;;;;;22.25;21.00;;;;;15.36;100.00;102051.84;5097670;27;45317;-63
2021/09/28 03:06:17;;;;;;;;;25.00;21.75;;;;;15.33;100.00;102049.25;5097482;27;45431;-65
2021/09/28 03:08:42;;;;;;;;;31.75;24.75;;;;;15.28;100.00;102045.81;5097501;27;45338;-62
2021/09/28 03:11:11;;;;;;;;;21.75;20.00;;;;;15.31;100.00;102053.66;5097401;27;45331;-65
2021/09/28 03:13:37;;;;;;;;;22.00;21.25;;;;;15.23;100.00;102051.16;5097508;27;45303;-63
2021/09/28 03:16:03;;;;;;;;;23.00;18.50;;;;;15.25;100.00;102056.38;5097249;27;46453;-63
2021/09/28 03:18:28;;;;;;;;;23.00;20.25;;;;;15.24;100.00;102073.06;5097113;27;45248;-63
2021/09/28 03:20:53;;;;;;;;;20.00;19.25;;;;;15.21;100.00;102057.31;5097493;27;45364;-63
2021/09/28 03:23:19;;;;;;;;;20.00;18.00;;;;;15.18;100.00;102062.63;5097707;27;45377;-63
2021/09/28 03:25:45;;;;;;;;;22.50;18.50;;;;;15.11;100.00;102058.31;5097315;27;45416;-63
2021/09/28 03:28:11;;;;;;;;;21.75;19.50;;;;;15.09;100.00;102058.31;5097424;27;45364;-63
2021/09/28 03:33:58;;;;;;;;;19.50;17.25;;;;;15.04;100.00;102049.63;5096995;27;45235;-63
2021/09/28 03:36:24;;;;;;;;;21.75;20.00;;;;;15.07;100.00;102054.84;5097304;27;46713;-63
2021/09/28 03:38:49;;;;;;;;;20.00;18.50;;;;;15.06;100.00;102052.22;5096926;27;45398;-62
2021/09/28 03:41:15;;;;;;;;;19.00;17.00;;;;;15.02;100.00;102041.75;5097472;27;45410;-63
2021/09/28 03:43:40;;;;;;;;;20.50;17.50;;;;;15.06;100.00;102053.09;5099954;27;45580;-63
2021/09/28 03:46:06;;;;;;;;;17.00;15.25;;;;;15.02;100.00;102052.28;5100590;27;45597;-63
2021/09/28 03:48:31;;;;;;;;;22.25;19.00;;;;;15.05;100.00;102056.63;5100335;27;45331;-64
2021/09/28 03:50:57;;;;;;;;;16.50;16.50;;;;;15.05;100.00;102045.22;5100593;27;45371;-62
2021/09/28 03:53:23;;;;;;;;;18.75;18.00;;;;;15.02;100.00;102047.00;5100797;27;45307;-63
2021/09/28 03:55:49;;;;;;;;;18.50;17.00;;;;;14.99;100.00;102040.91;5100222;27;47359;-62
2021/09/28 03:58:15;;;;;;;;;18.25;17.50;;;;;14.95;100.00;102029.56;5100251;27;45669;-62
2021/09/28 04:04:02;;;;;;;;;25.75;23.00;;;;;14.97;100.00;102043.56;5100350;27;45269;-63
2021/09/28 04:06:27;;;;;;;;;20.25;19.75;;;;;14.93;100.00;102031.31;5099868;27;46382;-62
2021/09/28 04:08:53;;;;;;;;;21.00;20.00;;;;;14.95;100.00;102039.22;5100220;27;45374;-62
2021/09/28 04:11:18;;;;;;;;;21.75;19.25;;;;;14.87;100.00;102031.41;5100192;27;45415;-63
2021/09/28 04:13:47;;;;;;;;;21.00;18.25;;;;;14.92;100.00;102039.22;5100457;27;45326;-62
2021/09/28 04:19:34;;;;;;;;;20.50;17.50;;;;;14.91;100.00;102046.25;5099737;27;45676;-62
2021/09/28 04:21:59;;;;;;;;;4.50;4.00;;;;;14.75;100.00;102023.66;5099919;27;45281;-64
2021/09/28 04:24:25;;;;;;;;;22.25;18.00;;;;;14.93;100.00;102054.13;5100013;27;45494;-62
2021/09/28 04:26:50;;;;;;;;;18.50;17.50;;;;;14.90;100.00;102054.16;5099573;27;46503;-62
2021/09/28 04:29:16;;;;;;;;;20.75;20.50;;;;;14.89;100.00;102055.03;5115496;27;45533;-62
2021/09/28 04:31:41;;;;;;;;;20.50;19.25;;;;;14.89;100.00;102055.91;5099765;27;45378;-63
2021/09/28 04:34:06;;;;;;;;;25.25;20.75;;;;;14.89;100.00;102058.53;5100005;27;45340;-62
2021/09/28 04:36:32;;;;;;;;;18.75;18.25;;;;;14.90;100.00;102065.53;5099796;27;46329;-62
2021/09/28 04:38:57;;;;;;;;;23.50;21.50;;;;;14.90;100.00;102056.78;5099454;27;45212;-62
2021/09/28 04:41:22;;;;;;;;;20.75;20.75;;;;;14.85;100.00;102054.22;5099624;27;45358;-62
2021/09/28 04:43:48;;;;;;;;;20.00;18.75;;;;;14.85;100.00;102058.59;5099951;27;45287;-63
2021/09/28 04:49:35;;;;;;;;;23.75;22.50;;;;;14.88;100.00;102056.81;5099334;27;45724;-62
2021/09/28 04:52:00;;;;;;;;;23.25;18.50;;;;;14.89;100.00;102060.31;5099746;27;45315;-62
2021/09/28 04:54:26;;;;;;;;;23.25;20.75;;;;;14.88;100.00;102053.31;5099614;27;45437;-64
2021/09/28 04:56:51;;;;;;;;;24.00;22.75;;;;;14.91;100.00;102054.13;5099542;27;46379;-63
2021/09/28 04:59:16;;;;;;;;;22.50;19.50;;;;;14.84;100.00;102044.59;5099069;27;45284;-62
2021/09/28 05:01:42;;;;;;;;;19.75;19.75;;;;;14.92;100.00;102055.00;5099298;27;45346;-63
2021/09/28 05:04:08;;;;;;;;;25.00;21.50;;;;;14.87;100.00;102060.31;5099403;27;45290;-62
2021/09/28 05:06:33;;;;;;;;;21.50;20.25;;;;;14.88;100.00;102054.16;5098888;27;47251;-62
2021/09/28 05:08:58;;;;;;;;;23.50;22.50;;;;;14.90;100.00;102060.28;5098992;27;45303;-63
2021/09/28 05:11:24;;;;;;;;;21.75;21.00;;;;;14.90;100.00;102062.91;5099313;27;45361;-64
2021/09/28 05:13:49;;;;;;;;;21.25;19.25;;;;;14.90;100.00;102060.28;5099216;27;45445;-63
2021/09/28 05:19:36;;;;;;;;;22.00;21.00;;;;;14.78;100.00;102038.53;5098720;27;45236;-62
2021/09/28 05:22:01;;;;;;;;;25.50;21.00;;;;;14.84;100.00;102048.97;5098914;27;45270;-62
2021/09/28 05:24:27;;;;;;;;;24.50;20.75;;;;;14.92;100.00;102063.75;5099108;27;45254;-62
2021/09/28 05:26:52;;;;;;;;;22.00;19.50;;;;;14.90;100.00;102060.28;5098550;27;47077;-61
2021/09/28 05:29:17;;;;;;;;;19.00;18.75;;;;;14.89;100.00;102057.66;5098712;27;45254;-62
2021/09/28 05:35:05;;;;;;;;;22.50;19.75;;;;;14.90;100.00;102052.41;5098766;27;45287;-63
2021/09/28 05:37:30;;;;;;;;;21.25;19.25;;;;;14.93;100.00;102054.97;5098774;27;46475;-63
2021/09/28 05:39:55;;;;;;;;;19.75;18.75;;;;;14.95;100.00;102050.59;5098270;27;45308;-61
2021/09/28 05:42:21;;;;;;;;;23.25;21.75;;;;;14.95;100.00;102034.81;5098539;27;45319;-62
2021/09/28 05:44:46;;;;;;;;;22.00;21.00;;;;;14.95;100.00;102026.94;5098962;27;45432;-62
2021/09/28 05:47:12;;;;;;;;;21.25;20.00;;;;;15.01;100.00;102040.00;5098584;27;46475;-62
2021/09/28 05:49:39;;;;;;;;;21.75;18.00;;;;;15.02;100.00;102036.50;5098718;27;45270;-62
2021/09/28 05:52:08;;;;;;;;;20.00;19.00;;;;;15.04;100.00;102030.34;5098388;27;45373;-63
2021/09/28 05:54:33;;;;;;;;;21.00;17.50;;;;;15.08;100.00;102030.28;5098548;27;45477;-63
2021/09/28 05:56:59;;;;;;;;;21.75;18.50;;;;;15.07;100.00;102025.03;5098167;27;46323;-63
2021/09/28 05:59:24;;;;;;;;;28.00;27.25;;;;;15.14;100.00;102042.47;5098279;27;45348;-68
2021/09/28 06:05:11;;;;;;;;;20.75;17.00;;;;;15.18;100.00;102033.69;5097578;27;45342;-60
2021/09/28 06:07:37;;;;;;;;;20.00;17.75;;;;;15.15;100.00;102031.06;5097905;27;46084;-62
2021/09/28 06:10:03;;;;;;;;;13.50;9.25;;;;;15.20;100.00;102032.78;5098025;27;45381;-61
2021/09/28 06:12:29;;;;;;;;;18.75;15.75;;;;;15.22;100.00;102032.75;5098309;27;45365;-62
2021/09/28 06:14:54;;;;;;;;;12.00;11.50;;;;;15.28;100.00;102044.06;5098182;27;45486;-60
2021/09/28 06:17:19;;;;;;;;;15.75;15.75;;;;;15.31;100.00;102044.00;5097737;27;46347;-61
2021/09/28 06:19:45;;;;;;;;;9.25;9.00;;;;;15.31;100.00;102030.84;5097983;27;45314;-60
2021/09/28 06:22:10;;;;;;;;;13.75;13.75;;;;;15.40;100.00;102034.28;5097990;27;45327;-60
2021/09/28 06:24:36;;;;;;;;;16.50;13.25;;;;;15.45;100.00;102035.94;5098442;27;45374;-61
2021/09/28 06:27:04;;;;;;;;;13.75;11.25;;;;;15.52;100.00;102032.31;5097640;27;46191;-60
2021/09/28 06:29:29;;;;;;;;;10.75;9.50;;;;;15.62;100.00;102041.00;5097847;27;45217;-61
2021/09/28 06:35:17;;;;;;;;;6.50;6.00;;;;;15.74;100.00;102035.56;5086952;27;45258;-61
2021/09/28 06:37:43;;;;;;;;;8.75;8.00;;;;;15.86;100.00;102045.91;5077164;28;47419;-62
2021/09/28 06:40:09;;;;;;;;;6.75;6.50;;;;;15.93;100.00;102046.69;5077276;28;45384;-61
2021/09/28 06:42:34;;;;;;;;;6.50;6.25;;;;;15.95;100.00;102037.00;5077458;28;45344;-61
2021/09/28 06:45:00;;;;;;;;;10.00;7.00;;;;;16.06;100.00;102049.97;5077419;28;45383;-62
2021/09/28 06:47:25;;;;;;;;;11.00;10.50;;;;;16.05;100.00;102028.03;5077346;28;46063;-60
2021/09/28 06:49:50;;;;;;;;;11.00;10.00;;;;;16.21;100.00;102040.06;5077237;28;45440;-61
2021/09/28 06:52:16;;;;;;;;;11.50;9.50;;;;;16.31;100.00;102045.22;5077114;28;45446;-62
2021/09/28 06:54:41;;;;;;;;;10.25;10.25;;;;;16.37;100.00;102034.53;5077006;28;45320;-62
2021/09/28 06:57:06;;;;;;;;;16.00;14.00;;;;;16.44;100.00;102030.91;5076790;28;46299;-61
2021/09/28 06:59:32;;;;;;;;;15.75;14.75;;;;;16.47;100.00;102022.94;5076782;28;45281;-62
2021/09/28 07:05:20;;;;;;;;;13.75;13.75;;;;;16.68;100.00;102027.84;5077014;28;45372;-62
2021/09/28 07:07:45;;;;;;;;;12.50;11.25;;;;;16.59;100.00;102006.91;5076713;28;46210;-62
2021/09/28 07:10:11;;;;;;;;;13.50;12.50;;;;;16.79;100.00;102027.66;5076722;28;45372;-62
2021/09/28 07:12:37;;;;;;;;;11.00;9.00;;;;;16.84;100.00;102031.06;5076867;28;45777;-62
2021/09/28 07:15:04;;;;;;;;;12.00;10.25;;;;;17.01;100.00;102039.53;5076817;28;45328;-62
2021/09/28 07:20:51;;;;;;;;;7.75;7.25;;;;;17.36;100.00;102035.25;5080096;28;45535;-61
2021/09/28 07:23:16;;;;;;;;;5.00;5.00;;;;;17.42;100.00;102025.41;5080168;28;45343;-62
2021/09/28 07:25:42;;;;;;;;;3.25;3.00;;;;;17.58;100.00;102036.53;5080296;28;45345;-62
2021/09/28 07:28:08;;;;;;;;;5.00;4.00;;;;;17.70;100.00;102027.50;5080035;28;47362;-61
2021/09/28 07:30:34;;;;;;;;;4.00;3.25;;;;;17.84;100.00;102033.31;5080436;28;45384;-61
2021/09/28 07:33:00;;;;;;;;;5.50;4.50;;;;;17.96;100.00;102022.47;5080607;28;45300;-62
2021/09/28 07:35:26;;;;;;;;;6.75;5.00;;;;;17.98;100.00;102011.84;5092433;27;45230;-60
2021/09/28 07:37:52;;;;;;;;;6.50;5.00;;;;;18.13;100.00;102016.75;5100610;27;45435;-62
2021/09/28 07:40:18;;;;;;;;;6.00;5.50;;;;;18.28;100.00;102016.34;5100828;27;45649;-61
2021/09/28 07:42:47;;;;;;;;;6.25;6.25;;;;;18.40;100.00;102014.31;5082193;27;45335;-62
2021/09/28 07:45:14;;;;;;;;;5.25;5.25;;;;;18.50;100.00;102023.72;5100860;27;45340;-62
2021/09/28 07:51:01;;;;;;;;;3.75;3.00;;;;;18.70;100.00;102004.72;5100178;27;45424;-62
2021/09/28 07:53:27;;;;;;;;;4.50;4.00;;;;;18.89;100.00;102022.69;5100305;27;45389;-62
2021/09/28 07:55:53;;;;;;;;;6.00;5.00;;;;;18.98;100.00;102026.81;5100582;27;45355;-62
2021/09/28 07:58:19;;;;;;;;;6.50;5.25;;;;;19.20;100.00;102035.00;5099838;27;45619;-60
2021/09/28 08:00:44;;;;;;;;;7.50;7.50;;;;;19.34;100.00;102030.19;5099992;27;45281;-60
2021/09/28 08:03:10;;;;;;;;;8.00;7.00;;;;;19.50;100.00;102031.47;5100041;27;45263;-61
2021/09/28 08:05:35;;;;;;;;;8.75;7.50;;;;;19.63;100.00;102024.03;5100285;27;45295;-61
2021/09/28 08:08:02;;;;;;;;;11.00;10.00;;;;;19.79;100.00;102027.06;5099669;27;46248;-62
2021/09/28 08:10:28;;;;;;;;;12.50;10.25;;;;;19.85;100.00;102003.88;5100163;27;45494;-61
2021/09/28 08:12:53;;;;;;;;;10.00;8.50;;;;;20.04;100.00;102022.69;5099943;27;45357;-63
2021/09/28 08:15:18;;;;;;;;;12.00;10.00;;;;;20.32;100.00;102027.94;5100094;27;45437;-63
2021/09/28 08:21:06;;;;;;;;;9.75;9.00;;;;;20.86;100.00;102034.03;5099766;27;45316;-62
2021/09/28 08:23:31;;;;;;;;;7.25;7.25;;;;;21.00;100.00;102032.59;5100244;27;45271;-62
2021/09/28 08:31:08;;;;;;;;;8.75;7.75;;;;;21.69;100.00;102025.53;5099748;27;45285;-61
2021/09/28 08:33:34;;;;;;;;;4.50;4.50;;;;;22.00;100.00;102021.63;5099999;27;45293;-61
2021/09/28 08:36:01;;;;;;;;;6.50;6.00;;;;;22.38;100.00;102022.69;5099780;27;45446;-62
2021/09/28 08:38:28;;;;;;;;;8.50;6.50;;;;;22.64;100.00;102015.38;5099510;27;47536;-63
2021/09/28 08:40:54;;;;;;;;;5.00;4.00;;;;;22.70;100.00;101996.47;5099731;27;45622;-60
2021/09/28 08:43:20;;;;;;;;;7.00;6.00;;;;;22.97;100.00;102023.69;5099623;27;45276;-62
2021/09/28 08:45:45;;;;;;;;;6.00;3.50;;;;;23.07;100.00;102024.97;5100043;27;45386;-61
2021/09/28 08:48:15;;;;;;;;;6.25;5.50;;;;;23.22;100.00;102025.13;5099746;27;46227;-61
2021/09/28 08:50:44;;;;;;;;;6.75;6.25;;;;;23.48;100.00;102023.91;5099240;27;45521;-63
2021/09/28 08:53:12;;;;;;;;;5.50;5.00;;;;;23.77;100.00;102022.56;5099227;27;45245;-61
2021/09/28 08:55:37;;;;;;;;;4.25;3.50;;;;;23.99;100.00;102025.03;5099793;27;45327;-62
2021/09/28 08:58:18;;;;;;;;;4.00;4.00;;;;;24.09;100.00;102020.06;5099134;27;45581;-62
2021/09/28 09:00:44;;;;;;;;;4.75;4.00;;;;;24.07;100.00;102020.16;5099590;27;45372;-61
2021/09/28 09:06:34;;;;;;;;;2.25;1.75;;;;;24.25;100.00;102021.03;5099414;27;45344;-61
2021/09/28 09:09:02;;;;;;;;;2.50;2.50;;;;;24.29;100.00;102011.09;5099098;27;47188;-62
2021/09/28 09:11:34;;;;;;;;;2.00;1.75;;;;;24.44;100.00;102018.28;5099202;27;45370;-61
2021/09/28 09:14:11;;;;;;;;;3.00;3.00;;;;;24.72;100.00;102017.72;5099208;27;45220;-62
2021/09/28 09:16:37;;;;;;;;;2.75;2.00;;;;;24.99;100.00;102018.94;5098999;27;45549;-62
2021/09/28 09:19:16;;;;;;;;;2.00;2.00;;;;;25.20;100.00;102016.03;5098920;27;46972;-62
2021/09/28 09:21:56;;;;;;;;;3.00;2.00;;;;;25.45;100.00;102013.72;5098955;27;45413;-62
2021/09/28 09:24:50;;;;;;;;;3.25;2.00;;;;;25.68;100.00;102016.94;5098850;27;45267;-62
2021/09/28 09:27:29;;;;;;;;;3.00;2.75;;;;;25.80;100.00;102014.44;5099331;27;45501;-62
2021/09/28 09:30:13;;;;;;;;;3.00;3.00;;;;;25.76;100.00;102010.19;5099043;27;45721;-62
2021/09/28 09:32:47;;;;;;;;;4.00;3.00;;;;;25.61;100.00;102003.03;5098693;27;45527;-61
2021/09/28 09:35:32;;;;;;;;;3.00;3.00;;;;;25.58;100.00;101996.03;5098826;27;45306;-61
2021/09/28 09:38:13;;;;;;;;;3.25;2.75;;;;;25.75;100.00;101994.22;5098876;27;45322;-62
2021/09/28 09:40:43;;;;;;;;;4.00;3.00;;;;;25.99;100.00;101973.19;5097837;27;46306;-62
2021/09/28 09:43:11;;;;;;;;;3.00;3.00;;;;;26.32;100.00;101967.63;5098374;27;45626;-62
2021/09/28 09:45:37;;;;;;;;;5.50;3.50;;;;;26.55;100.00;101976.03;5098342;27;45382;-61
2021/09/28 09:48:26;;;;;;;;;4.00;3.00;;;;;26.75;100.00;101968.56;5098657;27;45325;-61
2021/09/28 09:51:06;;;;;;;;;3.50;2.25;;;;;26.63;100.00;101970.19;5098220;27;47139;-60
2021/09/28 09:53:33;;;;;;;;;2.25;2.25;;;;;26.37;100.00;101971.78;5098204;27;45465;-63
2021/09/28 09:55:59;;;;;;;;;2.00;2.00;;;;;26.06;100.00;101954.00;5079955;27;45407;-62
2021/09/28 09:58:25;;;;;;;;;3.00;2.00;;;;;25.85;100.00;101960.63;5098666;27;45358;-61
2021/09/28 10:00:53;;;;;;;;;1.25;1.00;;;;;25.80;100.00;101957.34;5098213;27;46412;-62
2021/09/28 10:03:19;;;;;;;;;3.00;1.00;;;;;25.83;100.00;101958.06;5098187;27;45300;-63
2021/09/28 10:05:44;;;;;;;;;2.00;1.50;;;;;25.89;100.00;101951.47;5098329;27;45630;-61
2021/09/28 10:08:13;;;;;;;;;1.00;1.00;;;;;25.87;100.00;101951.56;5098383;27;45358;-62
2021/09/28 10:10:41;;;;;;;;;4.00;1.00;;;;;25.83;100.00;101959.88;5098316;27;45369;-62
2021/09/28 10:13:07;;;;;;;;;2.00;1.00;;;;;25.79;100.00;101955.63;5098164;27;45342;-62
2021/09/28 10:15:34;;;;;;;;;1.00;1.00;;;;;25.80;100.00;101962.69;5098407;27;45344;-62
2021/09/28 10:17:59;;;;;;;;;2.50;1.25;;;;;25.88;100.00;101955.97;5098006;27;45355;-62
2021/09/28 10:20:28;;;;;;;;;1.00;1.00;;;;;26.04;100.00;101960.41;5097730;27;47082;-62
2021/09/28 10:22:57;;;;;;;;;2.00;1.00;;;;;26.13;100.00;101960.72;5098013;27;45334;-61
2021/09/28 10:25:22;;;;;;;;;3.00;2.50;;;;;26.30;100.00;101967.72;5097811;27;45281;-61
2021/09/28 10:27:50;;;;;;;;;3.00;2.00;;;;;26.51;100.00;101968.28;5096751;27;45265;-60
2021/09/28 10:30:40;;;;;;;;;0.25;0.00;;;;;26.42;92.99;101960.78;5098215;27;46730;-62
2021/09/28 10:33:26;;;;;;;;;1.75;0.00;;;;;26.11;92.46;101957.28;5014637;28;45600;-61
2021/09/28 10:36:10;;;;;;;;;0.50;0.00;;;;;25.87;91.75;101964.09;5023290;28;45454;-63
2021/09/28 10:38:44;;;;;;;;;0.50;0.50;;;;;25.71;92.30;101964.09;5035232;28;45512;-61
2021/09/28 10:41:48;;;;;;;;;2.00;0.25;;;;;25.74;92.42;101961.25;5034828;28;47336;-61
2021/09/28 10:44:40;;;;;;;;;0.00;0.00;;;;;25.78;89.78;101970.81;5034821;28;45397;-63
2021/09/28 10:50:31;;;;;;;;;0.00;0.00;;;;;25.69;88.49;101957.13;5034864;28;45401;-61
2021/09/28 10:53:05;;;;;;;;;1.25;0.00;;;;;25.65;88.10;101949.25;5037859;28;47417;-61
2021/09/28 10:55:38;;;;;;;;;2.00;0.00;;;;;25.87;88.90;101956.91;5038007;28;45413;-61
2021/09/28 10:58:09;;;;;;;;;2.00;0.00;;;;;25.99;87.24;101941.94;5038386;28;45270;-61
2021/09/28 11:00:37;;;;;;;;;0.00;0.00;;;;;25.98;86.35;101940.22;5038789;28;45471;-62
2021/09/28 11:06:49;;;;;;;;;0.75;0.00;;;;;25.80;86.99;101939.50;5038041;28;45393;-63
2021/09/28 11:09:17;;;;;;;;;1.25;1.00;;;;;26.13;87.84;101941.13;5051303;27;45422;-62
2021/09/28 11:11:46;;;;;;;;;0.00;0.00;;;;;26.47;85.85;101940.78;5140378;27;45429;-62
2021/09/28 11:14:12;;;;;;;;;1.00;1.00;;;;;26.72;83.15;101937.47;5140367;27;45442;-63
2021/09/28 11:23:20;;;;;;;;;1.00;0.75;;;;;27.53;77.23;101921.47;5121778;27;45289;-62
2021/09/28 11:25:52;;;;;;;;;1.00;1.00;;;;;27.64;77.18;101920.81;5121528;27;45358;-62
2021/09/28 11:28:20;;;;;;;;;1.00;0.00;;;;;27.42;75.91;101916.00;5121392;27;45240;-63
2021/09/28 11:30:58;;;;;;;;;0.00;0.00;;;;;27.15;76.23;101914.13;5121703;27;45386;-62
2021/09/28 11:33:24;;;;;;;;;0.00;0.00;;;;;26.99;74.98;101916.13;5121673;27;45379;-65
2021/09/28 11:36:02;;;;;;;;;0.00;0.00;;;;;26.99;75.84;101916.13;5120946;27;46790;-62
2021/09/28 11:38:30;;;;;;;;;0.00;0.00;;;;;27.09;75.25;101914.53;5121202;27;45438;-62
2021/09/28 11:41:01;;;;;;;;;1.00;0.00;;;;;27.23;75.55;101916.34;5121321;27;45358;-61
2021/09/28 11:43:30;;;;;;;;;0.00;0.00;;;;;27.46;76.93;101891.53;5121434;27;45475;-62
2021/09/28 11:46:02;;;;;;;;;0.00;0.00;;;;;27.88;73.92;101895.00;5120838;27;47214;-62
2021/09/28 11:48:35;;;;;;;;;0.25;0.00;;;;;28.04;75.92;101892.09;5120907;27;45302;-62
2021/09/28 11:51:07;;;;;;;;;0.00;0.00;;;;;28.25;74.62;101889.75;5121206;27;45299;-62
2021/09/28 11:53:37;;;;;;;;;1.00;0.00;;;;;28.51;74.60;101886.06;5121037;27;45467;-62
2021/09/28 11:56:03;;;;;;;;;0.25;0.00;;;;;28.98;72.02;101897.09;5121160;27;46615;-62
2021/09/28 11:58:34;;;;;;;;;0.00;0.00;;;;;29.39;71.81;101884.09;5120461;27;45629;-63
2021/09/28 12:00:59;;;;;;;;;0.00;0.00;;;;;29.74;69.70;101872.53;5120725;27;45390;-64
2021/09/28 12:03:26;;;;;;;;;0.00;0.00;;;;;30.32;66.81;101878.75;5101685;27;45379;-61
2021/09/28 12:08:24;;;;;;;;;0.00;0.00;;;;;30.76;62.74;101873.34;5120412;27;45258;-61
2021/09/28 12:10:52;;;;;;;;;0.00;0.00;;;;;30.59;62.56;101862.22;5120588;27;45355;-61
2021/09/28 12:13:21;;;;;;;;;1.00;0.00;;;;;30.27;63.96;101864.78;5120756;27;45549;-62
2021/09/28 12:16:07;;;;;;;;;0.00;0.00;;;;;30.06;64.25;101848.47;5120454;27;46727;-61
2021/09/28 12:18:33;;;;;;;;;0.00;0.00;;;;;30.21;62.90;101854.50;5119989;27;46472;-62
2021/09/28 12:21:14;;;;;;;;;0.00;0.00;;;;;30.46;64.79;101843.47;5120331;27;45311;-61
2021/09/28 12:23:40;;;;;;;;;0.00;0.00;;;;;30.74;62.33;101845.66;5120610;27;45287;-60
2021/09/28 12:26:21;;;;;;;;;0.00;0.00;;;;;31.25;58.29;101834.28;5120044;27;46046;-61
2021/09/28 12:28:46;;;;;;;;;0.00;0.00;;;;;32.14;61.67;101826.59;5120342;27;45229;-61
2021/09/28 12:31:12;;;;;;;;;0.25;0.00;;;;;33.31;61.90;101820.50;5120487;27;45592;-63
2021/09/28 12:33:41;;;;;;;;;0.00;0.00;;;;;33.89;55.73;101825.88;5119578;27;45330;-61
2021/09/28 12:36:07;;;;;;;;;0.00;0.00;;;;;34.74;56.02;101811.22;5119728;27;47122;-62
2021/09/28 12:38:32;;;;;;;;;0.00;0.00;;;;;35.88;53.23;101807.66;5120223;27;45392;-62
2021/09/28 12:41:08;;;;;;;;;0.00;0.00;;;;;36.98;49.26;101821.22;5119854;27;45292;-61
2021/09/28 12:43:37;;;;;;;;;0.00;0.00;;;;;37.80;45.58;101804.84;5120509;27;45343;-61